Startpagina
METAR-TAF:

METAR-TAF

Vliegvelden :

Luchthaven Rijeka

Rijeka, Kroatië

breedte: 45-13N, lengte: 014-35E, hoogte: 85 m

Actueel weer

Dit bericht is 36 minuten geleden gemaakt, om 23:00 UTC
Wind 6 kt uit het westen, variërend tussen het zuidwesten en het westnoordwesten
Temperatuur 27°C
Vochtigheid 48%
Druk 1017 hPa
Zicht 10 km of meer
geen wolken onder 1500 m en geen cumulonimbus

METAR: LDRI 182300Z 26006KT 220V290 CAVOK 27/15 Q1017

Tijdstip: 01:36 (23:36 UTC)

Verwachting

Dit bericht is 6 uur en het 11 minuten geleden gemaakt, om 17:25 UTC
Verwachting geldig van 18 om 18 UTC tot 19 om 18 UTC
Wind 2 kt uit variabele richting
Zicht 10 km of meer
geen wolken onder 1500 m en geen cumulonimbus
Tijdelijke
van 19 om 00 UTC tot 19 om 09 UTC
Wind 5 kt uit het oostnoordoosten met uitschieters tot 18 kt

TAF: LDRI 181725Z 1818/1918 VRB02KT CAVOK TX33/1913Z TN23/1903Z TEMPO 1900/1909 06005G18KT

Waarnemingen en weersverwachtingen van meer dan 4000 vliegvelden (METAR en TAF).

De beschikbare stations zijn de gele en rode punten op de kaart.

Ga met uw muis naar het station om de naam te zien.

Klik dan om waarnemingen en weersverwachtingen te zien.

kaart wijzigen: klik op de groene knoppen met een zwart kruis om in te zoomen, op de groene knop met een streepje om uit te zoomen of op de groene pijlen voor aangrenzende kaarten.


METAR-TAF: